ATMO2: Muddy Boggy Creek at Atoka

                                SHEF ID:       ATMO2     Muddy Boggy Creek at Atoka, OK
STATION TYPE:

PRECIP STAGE RIV-FLOW VOLTAGE BAT-LOAD
in ft cfs volt volt
Ccp-Rev Ccp-Rev Ccp-Rev Ccp-Rev Ccp-Rev
(America/Chicago)
03/07 00:00 0.00 24.29 3894 12.69 12.44
03/07 01:00 0.00 24.20 3843 12.69 12.44
03/07 02:00 0.00 24.09 3781 12.67 12.44
03/07 03:00 0.00 23.96 3708 12.67 12.42
03/07 04:00 0.00 23.78 3607 12.67 12.42
03/07 05:00 0.38 23.59 3500 12.67 12.42
03/07 06:00 0.03 23.34 3359 12.66 12.41
03/07 07:00 0.01 23.09 3219 12.65 12.40
03/07 08:00 0.07 22.81 3063 12.65 12.40
03/07 09:00 0.07 22.55 2924 12.73 12.45
03/07 10:00 0.00 22.24 2758 12.82 12.54
03/07 11:00 0.01 21.93 2592 14.41 12.85
03/07 12:00 0.00 21.62 2426 13.06 12.67
03/07 13:00 0.00 21.31 2259 13.03 12.70
03/07 14:00 0.02 21.02 2104 13.32 12.87
03/07 15:00 0.00 20.77 1970 13.85 12.81
03/07 16:00 0.00 20.52 1836 13.25 12.82
03/07 17:00 0.00 20.31 1723 13.13 12.73
03/07 18:00 0.00 20.14 1632 12.92 12.65
03/07 19:00 0.00 20.05 1584 12.83 12.57
03/07 20:00 0.00 20.02 1568 12.80 12.53
03/07 21:00 0.00 20.09 1605 12.78 12.51
03/07 22:00 0.00 20.22 1675 12.76 12.50
03/07 23:00 0.00 20.41 1777 12.75 12.50
Data processed at Sun 08Mar2026 05:54 GMT

NOTICE: If you are parsing this page

Please convert to using our Data API. Starting early 2026 we will be migrating to: https://water.usace.army.mil with modern pages rendered in JavaScript. When this migration completes you will no longer be able to scrape this page! CWMSDataAPI (CDA)

Timeseries IDs (TSIDs)

TSIDs used from left to right in the data table
ATMB.Precip-Inc.Total.1Hour.1Hour.Ccp-Rev
ATMB.Stage.Inst.1Hour.0.Ccp-Rev
ATMB.Flow.Inst.1Hour.0.Ccp-Rev
ATMB.Volt-Battery.Inst.1Hour.0.Ccp-Rev
ATMB.Volt-Battery Load.Inst.1Hour.0.Ccp-Rev

                            

All information presented herein is the property of the government of the United States of America and may be revised or deleted at any time without prior notice. Dissemination of this information without the expressed written consent of the Public Affairs Office, Tulsa District U.S. Army Corps of Engineers is strictly prohibited. These data are gathered electronically and, as presented, have NOT undergone any form of quality control. These data are NOT guaranteed to be valid or correct.